sensor_id;sensor_type;location;lat;lon;timestamp;pressure;altitude;pressure_sealevel;temperature;humidity
36980;BME280;22891;50.562;7.272;2022-09-29T00:00:33;98673.00;;;6.86;nan
36980;BME280;22891;50.562;7.272;2022-09-29T00:02:59;98678.00;;;6.77;nan
36980;BME280;22891;50.562;7.272;2022-09-29T00:05:26;98688.00;;;6.76;nan
36980;BME280;22891;50.562;7.272;2022-09-29T00:07:51;98683.00;;;6.73;nan
36980;BME280;22891;50.562;7.272;2022-09-29T00:10:17;98681.00;;;6.63;nan
36980;BME280;22891;50.562;7.272;2022-09-29T00:12:43;98678.00;;;6.64;nan
36980;BME280;22891;50.562;7.272;2022-09-29T00:15:09;98686.00;;;6.84;nan
36980;BME280;22891;50.562;7.272;2022-09-29T00:17:35;98682.00;;;6.83;nan
36980;BME280;22891;50.562;7.272;2022-09-29T00:20:01;98681.00;;;6.71;nan
36980;BME280;22891;50.562;7.272;2022-09-29T00:22:26;98682.00;;;6.70;nan
36980;BME280;22891;50.562;7.272;2022-09-29T00:24:52;98682.00;;;6.75;nan
36980;BME280;22891;50.562;7.272;2022-09-29T00:27:18;98681.00;;;6.68;nan
36980;BME280;22891;50.562;7.272;2022-09-29T00:29:45;98682.00;;;6.77;nan
36980;BME280;22891;50.562;7.272;2022-09-29T00:32:10;98679.00;;;6.73;nan
36980;BME280;22891;50.562;7.272;2022-09-29T00:34:36;98673.00;;;6.79;nan
36980;BME280;22891;50.562;7.272;2022-09-29T00:37:02;98679.00;;;6.90;nan
36980;BME280;22891;50.562;7.272;2022-09-29T00:39:28;98677.00;;;6.88;nan
36980;BME280;22891;50.562;7.272;2022-09-29T00:41:54;98683.00;;;7.01;nan
36980;BME280;22891;50.562;7.272;2022-09-29T00:47:16;98668.00;;;6.98;nan
36980;BME280;22891;50.562;7.272;2022-09-29T00:49:49;98664.00;;;7.06;nan
36980;BME280;22891;50.562;7.272;2022-09-29T00:52:34;98669.00;;;7.09;nan
36980;BME280;22891;50.562;7.272;2022-09-29T00:55:17;98661.00;;;7.04;nan
36980;BME280;22891;50.562;7.272;2022-09-29T00:58:01;98668.00;;;7.08;nan
36980;BME280;22891;50.562;7.272;2022-09-29T01:00:29;98667.00;;;7.01;nan
36980;BME280;22891;50.562;7.272;2022-09-29T01:03:03;98666.00;;;6.94;nan
36980;BME280;22891;50.562;7.272;2022-09-29T01:05:51;98666.00;;;7.00;nan
36980;BME280;22891;50.562;7.272;2022-09-29T01:08:36;98665.00;;;7.00;nan
36980;BME280;22891;50.562;7.272;2022-09-29T01:11:04;98674.00;;;6.80;nan
36980;BME280;22891;50.562;7.272;2022-09-29T01:13:32;98674.00;;;6.86;nan
36980;BME280;22891;50.562;7.272;2022-09-29T01:15:59;98667.00;;;6.89;nan
36980;BME280;22891;50.562;7.272;2022-09-29T01:18:25;98664.00;;;6.87;nan
36980;BME280;22891;50.562;7.272;2022-09-29T01:22:31;98666.00;;;6.85;nan
36980;BME280;22891;50.562;7.272;2022-09-29T01:25:46;98668.00;;;6.76;nan
36980;BME280;22891;50.562;7.272;2022-09-29T01:32:37;98660.00;;;6.75;nan
36980;BME280;22891;50.562;7.272;2022-09-29T01:42:21;98682.00;;;6.77;nan
36980;BME280;22891;50.562;7.272;2022-09-29T01:44:55;98678.00;;;6.73;nan
36980;BME280;22891;50.562;7.272;2022-09-29T01:47:27;98681.00;;;6.65;nan
36980;BME280;22891;50.562;7.272;2022-09-29T01:49:59;98685.00;;;6.64;nan
36980;BME280;22891;50.562;7.272;2022-09-29T01:52:32;98686.00;;;6.71;nan
36980;BME280;22891;50.562;7.272;2022-09-29T01:55:11;98689.00;;;6.57;nan
36980;BME280;22891;50.562;7.272;2022-09-29T01:58:16;98680.00;;;6.52;nan
36980;BME280;22891;50.562;7.272;2022-09-29T02:00:49;98675.00;;;6.55;nan
36980;BME280;22891;50.562;7.272;2022-09-29T02:03:37;98686.00;;;6.55;nan
36980;BME280;22891;50.562;7.272;2022-09-29T02:06:16;98674.00;;;6.41;nan
36980;BME280;22891;50.562;7.272;2022-09-29T02:11:21;98690.00;;;6.48;nan
36980;BME280;22891;50.562;7.272;2022-09-29T02:14:35;98695.00;;;6.58;nan
36980;BME280;22891;50.562;7.272;2022-09-29T02:17:25;98688.00;;;6.59;nan
36980;BME280;22891;50.562;7.272;2022-09-29T02:19:55;98681.00;;;6.58;nan
36980;BME280;22891;50.562;7.272;2022-09-29T02:22:20;98689.00;;;6.56;nan
36980;BME280;22891;50.562;7.272;2022-09-29T02:24:48;98683.00;;;6.42;nan
36980;BME280;22891;50.562;7.272;2022-09-29T02:27:17;98692.00;;;6.33;nan
36980;BME280;22891;50.562;7.272;2022-09-29T02:29:43;98698.00;;;6.24;nan
36980;BME280;22891;50.562;7.272;2022-09-29T02:32:09;98692.00;;;6.19;nan
36980;BME280;22891;50.562;7.272;2022-09-29T02:34:41;98699.00;;;6.23;nan
36980;BME280;22891;50.562;7.272;2022-09-29T02:40:45;98695.00;;;6.19;nan
36980;BME280;22891;50.562;7.272;2022-09-29T02:43:38;98691.00;;;6.26;nan
36980;BME280;22891;50.562;7.272;2022-09-29T02:46:26;98681.00;;;6.26;nan
36980;BME280;22891;50.562;7.272;2022-09-29T02:51:39;98676.00;;;6.27;nan
36980;BME280;22891;50.562;7.272;2022-09-29T03:01:03;98696.00;;;6.13;nan
36980;BME280;22891;50.562;7.272;2022-09-29T03:03:30;98681.00;;;6.01;nan
36980;BME280;22891;50.562;7.272;2022-09-29T03:05:56;98692.00;;;6.21;nan
36980;BME280;22891;50.562;7.272;2022-09-29T03:08:22;98705.00;;;6.19;nan
36980;BME280;22891;50.562;7.272;2022-09-29T03:10:49;98692.00;;;6.11;nan
36980;BME280;22891;50.562;7.272;2022-09-29T03:13:14;98695.00;;;6.01;nan
36980;BME280;22891;50.562;7.272;2022-09-29T03:15:40;98696.00;;;5.99;nan
36980;BME280;22891;50.562;7.272;2022-09-29T03:18:06;98700.00;;;6.03;nan
36980;BME280;22891;50.562;7.272;2022-09-29T03:20:32;98691.00;;;6.01;nan
36980;BME280;22891;50.562;7.272;2022-09-29T03:22:58;98694.00;;;6.09;nan
36980;BME280;22891;50.562;7.272;2022-09-29T03:25:24;98696.00;;;6.01;nan
36980;BME280;22891;50.562;7.272;2022-09-29T03:27:50;98690.00;;;5.97;nan
36980;BME280;22891;50.562;7.272;2022-09-29T03:30:18;98700.00;;;6.00;nan
36980;BME280;22891;50.562;7.272;2022-09-29T03:32:44;98695.00;;;5.93;nan
36980;BME280;22891;50.562;7.272;2022-09-29T03:35:11;98700.00;;;5.92;nan
36980;BME280;22891;50.562;7.272;2022-09-29T03:37:36;98699.00;;;5.83;nan
36980;BME280;22891;50.562;7.272;2022-09-29T03:40:04;98694.00;;;5.83;nan
36980;BME280;22891;50.562;7.272;2022-09-29T03:42:30;98699.00;;;5.73;nan
36980;BME280;22891;50.562;7.272;2022-09-29T03:44:57;98702.00;;;5.69;nan
36980;BME280;22891;50.562;7.272;2022-09-29T03:47:23;98703.00;;;5.82;nan
36980;BME280;22891;50.562;7.272;2022-09-29T03:49:49;98709.00;;;5.77;nan
36980;BME280;22891;50.562;7.272;2022-09-29T03:52:16;98712.00;;;5.62;nan
36980;BME280;22891;50.562;7.272;2022-09-29T03:54:44;98716.00;;;5.58;nan
36980;BME280;22891;50.562;7.272;2022-09-29T03:57:09;98714.00;;;5.57;nan
36980;BME280;22891;50.562;7.272;2022-09-29T03:59:35;98721.00;;;5.49;nan
36980;BME280;22891;50.562;7.272;2022-09-29T04:02:01;98722.00;;;5.46;nan
36980;BME280;22891;50.562;7.272;2022-09-29T04:04:27;98729.00;;;5.53;nan
36980;BME280;22891;50.562;7.272;2022-09-29T04:06:53;98730.00;;;5.61;nan
36980;BME280;22891;50.562;7.272;2022-09-29T04:09:19;98722.00;;;5.62;nan
36980;BME280;22891;50.562;7.272;2022-09-29T04:11:45;98742.00;;;5.62;nan
36980;BME280;22891;50.562;7.272;2022-09-29T04:14:10;98741.00;;;5.54;nan
36980;BME280;22891;50.562;7.272;2022-09-29T04:16:37;98738.00;;;5.51;nan
36980;BME280;22891;50.562;7.272;2022-09-29T04:19:03;98748.00;;;5.54;nan
36980;BME280;22891;50.562;7.272;2022-09-29T04:21:29;98743.00;;;5.49;nan
36980;BME280;22891;50.562;7.272;2022-09-29T04:23:54;98742.00;;;5.47;nan
36980;BME280;22891;50.562;7.272;2022-09-29T04:26:20;98742.00;;;5.49;nan
36980;BME280;22891;50.562;7.272;2022-09-29T04:28:46;98742.00;;;5.41;nan
36980;BME280;22891;50.562;7.272;2022-09-29T04:31:12;98732.00;;;5.46;nan
36980;BME280;22891;50.562;7.272;2022-09-29T04:33:38;98752.00;;;5.62;nan
36980;BME280;22891;50.562;7.272;2022-09-29T04:36:04;98753.00;;;5.59;nan
36980;BME280;22891;50.562;7.272;2022-09-29T04:38:30;98755.00;;;5.60;nan
36980;BME280;22891;50.562;7.272;2022-09-29T04:40:56;98749.00;;;5.53;nan
36980;BME280;22891;50.562;7.272;2022-09-29T04:43:22;98760.00;;;5.60;nan
36980;BME280;22891;50.562;7.272;2022-09-29T04:45:49;98752.00;;;5.62;nan
36980;BME280;22891;50.562;7.272;2022-09-29T04:48:14;98758.00;;;5.52;nan
36980;BME280;22891;50.562;7.272;2022-09-29T04:50:41;98759.00;;;5.50;nan
36980;BME280;22891;50.562;7.272;2022-09-29T04:53:08;98766.00;;;5.61;nan
36980;BME280;22891;50.562;7.272;2022-09-29T04:55:36;98760.00;;;5.56;nan
36980;BME280;22891;50.562;7.272;2022-09-29T04:58:03;98760.00;;;5.56;nan
36980;BME280;22891;50.562;7.272;2022-09-29T05:00:30;98762.00;;;5.53;nan
36980;BME280;22891;50.562;7.272;2022-09-29T05:02:57;98759.00;;;5.60;nan
36980;BME280;22891;50.562;7.272;2022-09-29T05:05:22;98757.00;;;5.48;nan
36980;BME280;22891;50.562;7.272;2022-09-29T05:07:49;98762.00;;;5.45;nan
36980;BME280;22891;50.562;7.272;2022-09-29T05:10:14;98757.00;;;5.45;nan
36980;BME280;22891;50.562;7.272;2022-09-29T05:12:46;98768.00;;;5.43;nan
36980;BME280;22891;50.562;7.272;2022-09-29T05:15:13;98774.00;;;5.33;nan
36980;BME280;22891;50.562;7.272;2022-09-29T05:17:39;98771.00;;;5.28;nan
36980;BME280;22891;50.562;7.272;2022-09-29T05:20:05;98767.00;;;5.32;nan
36980;BME280;22891;50.562;7.272;2022-09-29T05:22:31;98758.00;;;5.28;nan
36980;BME280;22891;50.562;7.272;2022-09-29T05:24:57;98768.00;;;5.33;nan
36980;BME280;22891;50.562;7.272;2022-09-29T05:27:23;98773.00;;;5.36;nan
36980;BME280;22891;50.562;7.272;2022-09-29T05:29:49;98768.00;;;5.33;nan
36980;BME280;22891;50.562;7.272;2022-09-29T05:32:15;98774.00;;;5.42;nan
36980;BME280;22891;50.562;7.272;2022-09-29T05:34:41;98789.00;;;5.36;nan
36980;BME280;22891;50.562;7.272;2022-09-29T05:37:07;98788.00;;;5.42;nan
36980;BME280;22891;50.562;7.272;2022-09-29T05:39:34;98794.00;;;5.39;nan
36980;BME280;22891;50.562;7.272;2022-09-29T05:42:07;98792.00;;;5.41;nan
36980;BME280;22891;50.562;7.272;2022-09-29T05:44:35;98788.00;;;5.39;nan
36980;BME280;22891;50.562;7.272;2022-09-29T05:47:01;98795.00;;;5.40;nan
36980;BME280;22891;50.562;7.272;2022-09-29T05:49:27;98795.00;;;5.56;nan
36980;BME280;22891;50.562;7.272;2022-09-29T05:51:56;98792.00;;;5.67;nan
36980;BME280;22891;50.562;7.272;2022-09-29T05:54:21;98798.00;;;5.70;nan
36980;BME280;22891;50.562;7.272;2022-09-29T05:56:48;98790.00;;;5.53;nan
36980;BME280;22891;50.562;7.272;2022-09-29T05:59:14;98806.00;;;5.58;nan
36980;BME280;22891;50.562;7.272;2022-09-29T06:01:41;98798.00;;;5.63;nan
36980;BME280;22891;50.562;7.272;2022-09-29T06:04:07;98798.00;;;5.63;nan
36980;BME280;22891;50.562;7.272;2022-09-29T06:06:33;98811.00;;;5.69;nan
36980;BME280;22891;50.562;7.272;2022-09-29T06:09:01;98807.00;;;5.78;nan
36980;BME280;22891;50.562;7.272;2022-09-29T06:11:29;98808.00;;;5.86;nan
36980;BME280;22891;50.562;7.272;2022-09-29T06:13:58;98808.00;;;5.92;nan
36980;BME280;22891;50.562;7.272;2022-09-29T06:16:37;98800.00;;;5.84;nan
36980;BME280;22891;50.562;7.272;2022-09-29T06:19:03;98620.00;;;5.64;nan
36980;BME280;22891;50.562;7.272;2022-09-29T06:21:30;98803.00;;;5.80;nan
36980;BME280;22891;50.562;7.272;2022-09-29T06:23:57;98804.00;;;5.79;nan
36980;BME280;22891;50.562;7.272;2022-09-29T06:26:24;98810.00;;;5.81;nan
36980;BME280;22891;50.562;7.272;2022-09-29T06:28:53;98801.00;;;5.90;nan
36980;BME280;22891;50.562;7.272;2022-09-29T06:31:22;98806.00;;;6.01;nan
36980;BME280;22891;50.562;7.272;2022-09-29T06:33:48;98807.00;;;6.05;nan
36980;BME280;22891;50.562;7.272;2022-09-29T06:36:30;98806.00;;;6.20;nan
36980;BME280;22891;50.562;7.272;2022-09-29T06:39:16;98810.00;;;6.16;nan
36980;BME280;22891;50.562;7.272;2022-09-29T06:41:43;98809.00;;;5.97;nan
36980;BME280;22891;50.562;7.272;2022-09-29T06:44:13;98811.00;;;6.04;nan
36980;BME280;22891;50.562;7.272;2022-09-29T06:46:40;98806.00;;;6.29;nan
36980;BME280;22891;50.562;7.272;2022-09-29T06:49:06;98822.00;;;6.36;nan
36980;BME280;22891;50.562;7.272;2022-09-29T06:51:34;98823.00;;;6.40;nan
36980;BME280;22891;50.562;7.272;2022-09-29T06:54:00;98825.00;;;6.38;nan
36980;BME280;22891;50.562;7.272;2022-09-29T06:56:26;98818.00;;;6.52;nan
36980;BME280;22891;50.562;7.272;2022-09-29T06:58:51;98826.00;;;6.66;nan
36980;BME280;22891;50.562;7.272;2022-09-29T07:01:18;98822.00;;;6.69;nan
36980;BME280;22891;50.562;7.272;2022-09-29T07:03:44;98823.00;;;6.82;nan
36980;BME280;22891;50.562;7.272;2022-09-29T07:06:10;98823.00;;;6.88;nan
36980;BME280;22891;50.562;7.272;2022-09-29T07:08:36;98825.00;;;6.80;nan
36980;BME280;22891;50.562;7.272;2022-09-29T07:11:07;98830.00;;;6.72;nan
36980;BME280;22891;50.562;7.272;2022-09-29T07:13:34;98834.00;;;6.79;nan
36980;BME280;22891;50.562;7.272;2022-09-29T07:16:08;98829.00;;;6.76;nan
36980;BME280;22891;50.562;7.272;2022-09-29T07:18:36;98835.00;;;6.92;nan
36980;BME280;22891;50.562;7.272;2022-09-29T07:21:14;98827.00;;;6.79;nan
36980;BME280;22891;50.562;7.272;2022-09-29T07:23:44;98846.00;;;6.89;nan
36980;BME280;22891;50.562;7.272;2022-09-29T07:26:11;98839.00;;;7.05;nan
36980;BME280;22891;50.562;7.272;2022-09-29T07:28:36;98846.00;;;7.15;nan
36980;BME280;22891;50.562;7.272;2022-09-29T07:31:11;98844.00;;;7.17;nan
36980;BME280;22891;50.562;7.272;2022-09-29T07:33:38;98844.00;;;7.11;nan
36980;BME280;22891;50.562;7.272;2022-09-29T07:36:04;98857.00;;;7.06;nan
36980;BME280;22891;50.562;7.272;2022-09-29T07:38:30;98854.00;;;7.03;nan
36980;BME280;22891;50.562;7.272;2022-09-29T07:41:07;98847.00;;;7.05;nan
36980;BME280;22891;50.562;7.272;2022-09-29T07:43:53;98850.00;;;6.79;nan
36980;BME280;22891;50.562;7.272;2022-09-29T07:46:19;98863.00;;;6.74;nan
36980;BME280;22891;50.562;7.272;2022-09-29T07:48:46;98862.00;;;6.83;nan
36980;BME280;22891;50.562;7.272;2022-09-29T07:51:14;98857.00;;;6.99;nan
36980;BME280;22891;50.562;7.272;2022-09-29T07:53:40;98858.00;;;7.19;nan
36980;BME280;22891;50.562;7.272;2022-09-29T07:57:10;98854.00;;;7.17;nan
36980;BME280;22891;50.562;7.272;2022-09-29T07:59:35;98863.00;;;7.35;nan
36980;BME280;22891;50.562;7.272;2022-09-29T08:02:01;98863.00;;;7.42;nan
36980;BME280;22891;50.562;7.272;2022-09-29T08:04:28;98861.00;;;7.72;nan
36980;BME280;22891;50.562;7.272;2022-09-29T08:06:55;98872.00;;;7.69;nan
36980;BME280;22891;50.562;7.272;2022-09-29T08:09:21;98881.00;;;7.69;nan
36980;BME280;22891;50.562;7.272;2022-09-29T08:11:47;98882.00;;;7.82;nan
36980;BME280;22891;50.562;7.272;2022-09-29T08:14:13;98881.00;;;7.81;nan
36980;BME280;22891;50.562;7.272;2022-09-29T08:16:39;98889.00;;;8.01;nan
36980;BME280;22891;50.562;7.272;2022-09-29T08:19:05;98884.00;;;8.06;nan
36980;BME280;22891;50.562;7.272;2022-09-29T08:21:32;98891.00;;;8.02;nan
36980;BME280;22891;50.562;7.272;2022-09-29T08:24:02;98889.00;;;8.09;nan
36980;BME280;22891;50.562;7.272;2022-09-29T08:26:31;98892.00;;;8.14;nan
36980;BME280;22891;50.562;7.272;2022-09-29T08:28:58;98888.00;;;8.50;nan
36980;BME280;22891;50.562;7.272;2022-09-29T08:31:23;98896.00;;;8.29;nan
36980;BME280;22891;50.562;7.272;2022-09-29T08:33:50;98899.00;;;8.40;nan
36980;BME280;22891;50.562;7.272;2022-09-29T08:36:17;98903.00;;;8.47;nan
36980;BME280;22891;50.562;7.272;2022-09-29T08:38:47;98899.00;;;8.54;nan
36980;BME280;22891;50.562;7.272;2022-09-29T08:41:45;98908.00;;;8.59;nan
36980;BME280;22891;50.562;7.272;2022-09-29T08:47:46;98906.00;;;8.96;nan
36980;BME280;22891;50.562;7.272;2022-09-29T08:50:28;98920.00;;;9.68;nan
36980;BME280;22891;50.562;7.272;2022-09-29T08:53:01;98926.00;;;9.79;nan
36980;BME280;22891;50.562;7.272;2022-09-29T08:56:14;98917.00;;;10.22;nan
36980;BME280;22891;50.562;7.272;2022-09-29T08:58:41;98925.00;;;11.84;nan
36980;BME280;22891;50.562;7.272;2022-09-29T09:08:44;99027.00;;;12.40;nan
36980;BME280;22891;50.562;7.272;2022-09-29T09:21:41;99197.00;;;12.85;nan
36980;BME280;22891;50.562;7.272;2022-09-29T09:24:27;99287.00;;;14.77;nan
36980;BME280;22891;50.562;7.272;2022-09-29T09:27:02;99368.00;;;14.96;nan
36980;BME280;22891;50.562;7.272;2022-09-29T09:29:38;99442.00;;;14.81;nan
36980;BME280;22891;50.562;7.272;2022-09-29T09:32:33;99468.00;;;15.83;nan
36980;BME280;22891;50.562;7.272;2022-09-29T09:35:30;99548.00;;;17.18;nan
36980;BME280;22891;50.562;7.272;2022-09-29T09:38:03;99548.00;;;17.18;nan
36980;BME280;22891;50.562;7.272;2022-09-29T09:40:42;99648.00;;;17.02;nan
36980;BME280;22891;50.562;7.272;2022-09-29T09:43:37;99657.00;;;16.88;nan
36980;BME280;22891;50.562;7.272;2022-09-29T09:49:38;99662.00;;;17.53;nan
36980;BME280;22891;50.562;7.272;2022-09-29T09:52:17;99687.00;;;17.49;nan
36980;BME280;22891;50.562;7.272;2022-09-29T09:54:51;99673.00;;;16.91;nan
36980;BME280;22891;50.562;7.272;2022-09-29T09:59:01;99676.00;;;17.52;nan
36980;BME280;22891;50.562;7.272;2022-09-29T10:01:31;99653.00;;;16.37;nan
36980;BME280;22891;50.562;7.272;2022-09-29T10:03:58;99646.00;;;16.60;nan
36980;BME280;22891;50.562;7.272;2022-09-29T10:06:25;99596.00;;;16.24;nan
36980;BME280;22891;50.562;7.272;2022-09-29T10:08:52;99335.00;;;16.23;nan
36980;BME280;22891;50.562;7.272;2022-09-29T10:11:23;99620.00;;;15.89;nan
36980;BME280;22891;50.562;7.272;2022-09-29T10:13:59;99646.00;;;16.88;nan
36980;BME280;22891;50.562;7.272;2022-09-29T10:16:31;99628.00;;;16.38;nan
36980;BME280;22891;50.562;7.272;2022-09-29T10:18:59;99636.00;;;17.04;nan
36980;BME280;22891;50.562;7.272;2022-09-29T10:21:41;99682.00;;;17.65;nan
36980;BME280;22891;50.562;7.272;2022-09-29T10:24:27;99682.00;;;17.65;nan
36980;BME280;22891;50.562;7.272;2022-09-29T10:26:57;99691.00;;;18.07;nan
36980;BME280;22891;50.562;7.272;2022-09-29T10:29:42;99695.00;;;18.94;nan
36980;BME280;22891;50.562;7.272;2022-09-29T10:32:16;99695.00;;;18.94;nan
36980;BME280;22891;50.562;7.272;2022-09-29T10:34:50;99695.00;;;18.94;nan
36980;BME280;22891;50.562;7.272;2022-09-29T10:37:35;99715.00;;;19.57;nan
36980;BME280;22891;50.562;7.272;2022-09-29T10:40:35;99722.00;;;20.19;nan
36980;BME280;22891;50.562;7.272;2022-09-29T10:43:22;99720.00;;;19.14;nan
36980;BME280;22891;50.562;7.272;2022-09-29T10:45:49;99723.00;;;18.98;nan
36980;BME280;22891;50.562;7.272;2022-09-29T10:48:24;99718.00;;;19.22;nan
36980;BME280;22891;50.562;7.272;2022-09-29T10:50:54;99718.00;;;19.22;nan
36980;BME280;22891;50.562;7.272;2022-09-29T10:53:26;99718.00;;;19.22;nan
36980;BME280;22891;50.562;7.272;2022-09-29T10:55:55;99724.00;;;19.30;nan
36980;BME280;22891;50.562;7.272;2022-09-29T10:58:31;99724.00;;;19.30;nan
36980;BME280;22891;50.562;7.272;2022-09-29T11:01:13;99728.00;;;20.22;nan
36980;BME280;22891;50.562;7.272;2022-09-29T11:03:48;99735.00;;;20.70;nan
36980;BME280;22891;50.562;7.272;2022-09-29T11:06:15;99742.00;;;19.80;nan
36980;BME280;22891;50.562;7.272;2022-09-29T11:09:08;99742.00;;;19.80;nan
36980;BME280;22891;50.562;7.272;2022-09-29T11:12:20;99736.00;;;19.37;nan
36980;BME280;22891;50.562;7.272;2022-09-29T11:14:48;99732.00;;;18.97;nan
36980;BME280;22891;50.562;7.272;2022-09-29T11:17:38;99726.00;;;18.80;nan
36980;BME280;22891;50.562;7.272;2022-09-29T11:20:09;99726.00;;;18.79;nan
36980;BME280;22891;50.562;7.272;2022-09-29T11:23:43;99726.00;;;18.79;nan
36980;BME280;22891;50.562;7.272;2022-09-29T11:26:50;99717.00;;;18.45;nan
36980;BME280;22891;50.562;7.272;2022-09-29T11:36:34;99729.00;;;19.18;nan
36980;BME280;22891;50.562;7.272;2022-09-29T11:40:00;99729.00;;;19.18;nan
36980;BME280;22891;50.562;7.272;2022-09-29T11:42:52;99729.00;;;19.18;nan
36980;BME280;22891;50.562;7.272;2022-09-29T11:45:37;99729.00;;;19.18;nan
36980;BME280;22891;50.562;7.272;2022-09-29T11:49:43;99729.00;;;19.18;nan
36980;BME280;22891;50.562;7.272;2022-09-29T11:52:24;99725.00;;;16.39;nan
36980;BME280;22891;50.562;7.272;2022-09-29T11:55:17;99723.00;;;16.13;nan
36980;BME280;22891;50.562;7.272;2022-09-29T11:57:58;99725.00;;;15.57;nan
36980;BME280;22891;50.562;7.272;2022-09-29T12:01:00;99708.00;;;15.70;nan
36980;BME280;22891;50.562;7.272;2022-09-29T12:08:48;99727.00;;;17.60;nan
36980;BME280;22891;50.562;7.272;2022-09-29T12:12:14;99732.00;;;17.45;nan
36980;BME280;22891;50.562;7.272;2022-09-29T12:15:10;99745.00;;;16.80;nan
36980;BME280;22891;50.562;7.272;2022-09-29T12:17:46;99741.00;;;15.84;nan
36980;BME280;22891;50.562;7.272;2022-09-29T12:20:24;99744.00;;;15.23;nan
36980;BME280;22891;50.562;7.272;2022-09-29T12:22:53;99725.00;;;15.28;nan
36980;BME280;22891;50.562;7.272;2022-09-29T12:25:24;99732.00;;;15.57;nan
36980;BME280;22891;50.562;7.272;2022-09-29T12:27:53;99734.00;;;15.48;nan
36980;BME280;22891;50.562;7.272;2022-09-29T12:30:27;99727.00;;;15.30;nan
36980;BME280;22891;50.562;7.272;2022-09-29T12:33:10;99720.00;;;15.23;nan
36980;BME280;22891;50.562;7.272;2022-09-29T12:36:09;99714.00;;;14.93;nan
36980;BME280;22891;50.562;7.272;2022-09-29T12:40:47;99709.00;;;14.89;nan
36980;BME280;22891;50.562;7.272;2022-09-29T12:43:22;99694.00;;;14.86;nan
36980;BME280;22891;50.562;7.272;2022-09-29T12:46:43;99696.00;;;14.49;nan
36980;BME280;22891;50.562;7.272;2022-09-29T12:54:50;99690.00;;;15.13;nan
36980;BME280;22891;50.562;7.272;2022-09-29T12:57:24;99686.00;;;15.75;nan
36980;BME280;22891;50.562;7.272;2022-09-29T13:00:10;99718.00;;;16.21;nan
36980;BME280;22891;50.562;7.272;2022-09-29T13:03:19;99724.00;;;15.64;nan
36980;BME280;22891;50.562;7.272;2022-09-29T13:17:03;99716.00;;;15.71;nan
36980;BME280;22891;50.562;7.272;2022-09-29T13:20:36;99711.00;;;15.42;nan
36980;BME280;22891;50.562;7.272;2022-09-29T13:23:27;99719.00;;;15.24;nan
36980;BME280;22891;50.562;7.272;2022-09-29T13:28:37;99725.00;;;15.08;nan
36980;BME280;22891;50.562;7.272;2022-09-29T13:31:16;99727.00;;;15.10;nan
36980;BME280;22891;50.562;7.272;2022-09-29T13:33:56;99723.00;;;14.95;nan
36980;BME280;22891;50.562;7.272;2022-09-29T13:36:26;99717.00;;;14.97;nan
36980;BME280;22891;50.562;7.272;2022-09-29T13:38:58;99741.00;;;14.80;nan
36980;BME280;22891;50.562;7.272;2022-09-29T13:41:36;99748.00;;;15.00;nan
36980;BME280;22891;50.562;7.272;2022-09-29T13:44:21;99747.00;;;14.98;nan
36980;BME280;22891;50.562;7.272;2022-09-29T13:46:48;99740.00;;;14.79;nan
36980;BME280;22891;50.562;7.272;2022-09-29T13:49:23;99756.00;;;14.69;nan
36980;BME280;22891;50.562;7.272;2022-09-29T13:57:51;99764.00;;;14.86;nan
36980;BME280;22891;50.562;7.272;2022-09-29T14:00:18;99760.00;;;14.55;nan
36980;BME280;22891;50.562;7.272;2022-09-29T14:03:45;99765.00;;;14.49;nan
36980;BME280;22891;50.562;7.272;2022-09-29T14:06:32;99776.00;;;14.49;nan
36980;BME280;22891;50.562;7.272;2022-09-29T14:09:13;99770.00;;;14.33;nan
36980;BME280;22891;50.562;7.272;2022-09-29T14:11:53;99770.00;;;14.46;nan
36980;BME280;22891;50.562;7.272;2022-09-29T14:14:25;99766.00;;;14.40;nan
36980;BME280;22891;50.562;7.272;2022-09-29T14:17:41;99772.00;;;14.14;nan
36980;BME280;22891;50.562;7.272;2022-09-29T14:20:18;99776.00;;;13.98;nan
36980;BME280;22891;50.562;7.272;2022-09-29T14:25:50;99774.00;;;13.87;nan
36980;BME280;22891;50.562;7.272;2022-09-29T14:28:22;99765.00;;;13.85;nan
36980;BME280;22891;50.562;7.272;2022-09-29T14:30:53;99770.00;;;13.75;nan
36980;BME280;22891;50.562;7.272;2022-09-29T14:33:38;99770.00;;;13.59;nan
36980;BME280;22891;50.562;7.272;2022-09-29T14:36:10;99771.00;;;13.78;nan
36980;BME280;22891;50.562;7.272;2022-09-29T14:38:43;99773.00;;;13.62;nan
36980;BME280;22891;50.562;7.272;2022-09-29T14:41:23;99767.00;;;13.52;nan
36980;BME280;22891;50.562;7.272;2022-09-29T14:44:07;99778.00;;;13.57;nan
36980;BME280;22891;50.562;7.272;2022-09-29T14:46:51;99775.00;;;13.39;nan
36980;BME280;22891;50.562;7.272;2022-09-29T14:51:21;99770.00;;;13.57;nan
36980;BME280;22891;50.562;7.272;2022-09-29T14:54:32;99773.00;;;13.80;nan
36980;BME280;22891;50.562;7.272;2022-09-29T14:57:19;99764.00;;;13.71;nan
36980;BME280;22891;50.562;7.272;2022-09-29T15:00:11;99773.00;;;13.93;nan
36980;BME280;22891;50.562;7.272;2022-09-29T15:02:46;99771.00;;;13.85;nan
36980;BME280;22891;50.562;7.272;2022-09-29T15:05:30;99780.00;;;13.90;nan
36980;BME280;22891;50.562;7.272;2022-09-29T15:07:58;99780.00;;;13.91;nan
36980;BME280;22891;50.562;7.272;2022-09-29T15:10:26;99766.00;;;13.95;nan
36980;BME280;22891;50.562;7.272;2022-09-29T15:13:17;99758.00;;;13.98;nan
36980;BME280;22891;50.562;7.272;2022-09-29T15:15:48;99762.00;;;13.99;nan
36980;BME280;22891;50.562;7.272;2022-09-29T15:20:09;99760.00;;;13.93;nan
36980;BME280;22891;50.562;7.272;2022-09-29T15:25:45;99774.00;;;13.93;nan
36980;BME280;22891;50.562;7.272;2022-09-29T15:28:35;99764.00;;;14.05;nan
36980;BME280;22891;50.562;7.272;2022-09-29T15:31:04;99777.00;;;14.06;nan
36980;BME280;22891;50.562;7.272;2022-09-29T15:33:34;99783.00;;;14.08;nan
36980;BME280;22891;50.562;7.272;2022-09-29T15:36:06;99784.00;;;13.98;nan
36980;BME280;22891;50.562;7.272;2022-09-29T15:38:35;99787.00;;;13.98;nan
36980;BME280;22891;50.562;7.272;2022-09-29T15:41:14;99783.00;;;14.05;nan
36980;BME280;22891;50.562;7.272;2022-09-29T15:44:19;99795.00;;;14.19;nan
36980;BME280;22891;50.562;7.272;2022-09-29T15:46:51;99786.00;;;14.27;nan
36980;BME280;22891;50.562;7.272;2022-09-29T15:49:25;99782.00;;;14.40;nan
36980;BME280;22891;50.562;7.272;2022-09-29T15:52:03;99798.00;;;14.27;nan
36980;BME280;22891;50.562;7.272;2022-09-29T15:54:38;99810.00;;;14.14;nan
36980;BME280;22891;50.562;7.272;2022-09-29T15:57:41;99795.00;;;14.19;nan